sensor_id;sensor_type;location;lat;lon;timestamp;pressure;altitude;pressure_sealevel;temperature;humidity
46129;BME280;31860;45.186;5.790;2023-03-20T00:00:16;99603.63;;;14.15;100.00
46129;BME280;31860;45.186;5.790;2023-03-20T00:02:42;99600.16;;;14.12;100.00
46129;BME280;31860;45.186;5.790;2023-03-20T00:05:15;99602.84;;;14.06;100.00
46129;BME280;31860;45.186;5.790;2023-03-20T00:07:43;99600.22;;;14.04;100.00
46129;BME280;31860;45.186;5.790;2023-03-20T00:10:09;99604.63;;;13.99;100.00
46129;BME280;31860;45.186;5.790;2023-03-20T00:12:35;99593.28;;;13.96;100.00
46129;BME280;31860;45.186;5.790;2023-03-20T00:15:02;99596.78;;;13.92;100.00
46129;BME280;31860;45.186;5.790;2023-03-20T00:17:29;99592.47;;;13.89;100.00
46129;BME280;31860;45.186;5.790;2023-03-20T00:19:54;99602.97;;;13.89;100.00
46129;BME280;31860;45.186;5.790;2023-03-20T00:22:19;99603.81;;;13.88;100.00
46129;BME280;31860;45.186;5.790;2023-03-20T00:24:46;99598.56;;;13.88;100.00
46129;BME280;31860;45.186;5.790;2023-03-20T00:27:14;99595.09;;;13.89;100.00
46129;BME280;31860;45.186;5.790;2023-03-20T00:29:40;99592.41;;;13.92;100.00
46129;BME280;31860;45.186;5.790;2023-03-20T00:32:10;99593.28;;;13.96;100.00
46129;BME280;31860;45.186;5.790;2023-03-20T00:34:37;99598.53;;;13.94;100.00
46129;BME280;31860;45.186;5.790;2023-03-20T00:37:03;99596.78;;;13.93;100.00
46129;BME280;31860;45.186;5.790;2023-03-20T00:39:29;99589.81;;;13.91;100.00
46129;BME280;31860;45.186;5.790;2023-03-20T00:42:01;99587.19;;;13.86;100.00
46129;BME280;31860;45.186;5.790;2023-03-20T00:44:35;99586.31;;;13.86;100.00
46129;BME280;31860;45.186;5.790;2023-03-20T00:47:19;99583.72;;;13.84;100.00
46129;BME280;31860;45.186;5.790;2023-03-20T00:49:47;99581.97;;;13.85;100.00
46129;BME280;31860;45.186;5.790;2023-03-20T00:52:15;99587.22;;;13.85;100.00
46129;BME280;31860;45.186;5.790;2023-03-20T00:54:41;99586.31;;;13.86;100.00
46129;BME280;31860;45.186;5.790;2023-03-20T00:57:20;99581.94;;;13.88;100.00
46129;BME280;31860;45.186;5.790;2023-03-20T01:00:01;99586.34;;;13.87;100.00
46129;BME280;31860;45.186;5.790;2023-03-20T01:02:29;99580.19;;;13.91;100.00
46129;BME280;31860;45.186;5.790;2023-03-20T01:04:56;99568.78;;;13.94;100.00
46129;BME280;31860;45.186;5.790;2023-03-20T01:07:21;99562.63;;;13.96;100.00
46129;BME280;31860;45.186;5.790;2023-03-20T01:09:47;99565.25;;;13.98;100.00
46129;BME280;31860;45.186;5.790;2023-03-20T01:12:13;99557.34;;;13.99;100.00
46129;BME280;31860;45.186;5.790;2023-03-20T01:14:40;99555.56;;;14.04;100.00
46129;BME280;31860;45.186;5.790;2023-03-20T01:17:16;99546.81;;;14.04;100.00
46129;BME280;31860;45.186;5.790;2023-03-20T01:19:42;99551.22;;;14.00;100.00
46129;BME280;31860;45.186;5.790;2023-03-20T01:22:07;99545.97;;;14.00;100.00
46129;BME280;31860;45.186;5.790;2023-03-20T01:24:33;99551.19;;;14.02;100.00
46129;BME280;31860;45.186;5.790;2023-03-20T01:26:59;99541.56;;;14.02;100.00
46129;BME280;31860;45.186;5.790;2023-03-20T01:29:28;99539.78;;;14.06;100.00
46129;BME280;31860;45.186;5.790;2023-03-20T01:31:55;99531.91;;;14.06;100.00
46129;BME280;31860;45.186;5.790;2023-03-20T01:34:20;99527.53;;;14.06;100.00
46129;BME280;31860;45.186;5.790;2023-03-20T01:36:53;99533.63;;;14.08;100.00
46129;BME280;31860;45.186;5.790;2023-03-20T01:39:21;99524.06;;;14.04;100.00
46129;BME280;31860;45.186;5.790;2023-03-20T01:41:50;99521.41;;;14.06;100.00
46129;BME280;31860;45.186;5.790;2023-03-20T01:44:23;99519.63;;;14.08;100.00
46129;BME280;31860;45.186;5.790;2023-03-20T01:46:51;99513.47;;;14.09;100.00
46129;BME280;31860;45.186;5.790;2023-03-20T01:51:46;99504.72;;;14.08;100.00
46129;BME280;31860;45.186;5.790;2023-03-20T01:54:27;99504.72;;;14.08;100.00
46129;BME280;31860;45.186;5.790;2023-03-20T01:57:08;99504.72;;;14.11;100.00
46129;BME280;31860;45.186;5.790;2023-03-20T01:59:37;99500.34;;;14.10;100.00
46129;BME280;31860;45.186;5.790;2023-03-20T02:02:06;99505.59;;;14.09;100.00
46129;BME280;31860;45.186;5.790;2023-03-20T02:04:37;99502.97;;;14.09;100.00
46129;BME280;31860;45.186;5.790;2023-03-20T02:07:06;99496.84;;;14.08;100.00
46129;BME280;31860;45.186;5.790;2023-03-20T02:09:33;99498.56;;;14.12;100.00
46129;BME280;31860;45.186;5.790;2023-03-20T02:12:00;99502.13;;;14.10;100.00
46129;BME280;31860;45.186;5.790;2023-03-20T02:14:25;99504.72;;;14.11;100.00
46129;BME280;31860;45.186;5.790;2023-03-20T02:16:52;99496.84;;;14.08;100.00
46129;BME280;31860;45.186;5.790;2023-03-20T02:19:41;99497.69;;;14.10;100.00
46129;BME280;31860;45.186;5.790;2023-03-20T02:22:49;99504.78;;;14.04;100.00
46129;BME280;31860;45.186;5.790;2023-03-20T02:31:04;99497.88;;;13.92;100.00
46129;BME280;31860;45.186;5.790;2023-03-20T02:41:48;99498.81;;;13.87;100.00
46129;BME280;31860;45.186;5.790;2023-03-20T02:44:27;99502.28;;;13.86;100.00
46129;BME280;31860;45.186;5.790;2023-03-20T02:47:03;99496.22;;;13.81;100.00
46129;BME280;31860;45.186;5.790;2023-03-20T02:52:24;99504.06;;;13.82;100.00
46129;BME280;31860;45.186;5.790;2023-03-20T02:58:21;99503.28;;;13.74;100.00
46129;BME280;31860;45.186;5.790;2023-03-20T03:00:56;99505.91;;;13.71;100.00
46129;BME280;31860;45.186;5.790;2023-03-20T03:03:59;99510.34;;;13.66;100.00
46129;BME280;31860;45.186;5.790;2023-03-20T03:06:35;99503.34;;;13.64;100.00
46129;BME280;31860;45.186;5.790;2023-03-20T03:09:14;99500.72;;;13.64;100.00
46129;BME280;31860;45.186;5.790;2023-03-20T03:11:47;99499.00;;;13.63;100.00
46129;BME280;31860;45.186;5.790;2023-03-20T03:14:18;99501.63;;;13.63;100.00
46129;BME280;31860;45.186;5.790;2023-03-20T03:16:47;99500.75;;;13.62;100.00
46129;BME280;31860;45.186;5.790;2023-03-20T03:19:20;99498.09;;;13.67;100.00
46129;BME280;31860;45.186;5.790;2023-03-20T03:21:48;99492.78;;;13.71;100.00
46129;BME280;31860;45.186;5.790;2023-03-20T03:24:33;99491.94;;;13.72;100.00
46129;BME280;31860;45.186;5.790;2023-03-20T03:27:02;99496.31;;;13.72;100.00
46129;BME280;31860;45.186;5.790;2023-03-20T03:29:34;99487.59;;;13.68;100.00
46129;BME280;31860;45.186;5.790;2023-03-20T03:32:02;99486.69;;;13.69;100.00
46129;BME280;31860;45.186;5.790;2023-03-20T03:34:30;99488.44;;;13.72;100.00
46129;BME280;31860;45.186;5.790;2023-03-20T03:37:10;99485.78;;;13.73;100.00
46129;BME280;31860;45.186;5.790;2023-03-20T03:39:49;99484.03;;;13.75;100.00
46129;BME280;31860;45.186;5.790;2023-03-20T03:42:29;99491.84;;;13.78;100.00
46129;BME280;31860;45.186;5.790;2023-03-20T03:45:05;99491.84;;;13.83;100.00
46129;BME280;31860;45.186;5.790;2023-03-20T03:50:24;99498.88;;;13.78;100.00
46129;BME280;31860;45.186;5.790;2023-03-20T03:52:51;99502.41;;;13.75;100.00
46129;BME280;31860;45.186;5.790;2023-03-20T03:55:22;99493.63;;;13.75;100.00
46129;BME280;31860;45.186;5.790;2023-03-20T03:57:58;99493.63;;;13.75;100.00
46129;BME280;31860;45.186;5.790;2023-03-20T04:00:26;99499.81;;;13.72;100.00
46129;BME280;31860;45.186;5.790;2023-03-20T04:02:55;99501.56;;;13.70;100.00
46129;BME280;31860;45.186;5.790;2023-03-20T04:05:22;99497.16;;;13.74;100.00
46129;BME280;31860;45.186;5.790;2023-03-20T04:07:53;99493.63;;;13.75;100.00
46129;BME280;31860;45.186;5.790;2023-03-20T04:10:19;99498.03;;;13.74;100.00
46129;BME280;31860;45.186;5.790;2023-03-20T04:12:45;99503.28;;;13.71;100.00
46129;BME280;31860;45.186;5.790;2023-03-20T04:15:12;99501.56;;;13.72;100.00
46129;BME280;31860;45.186;5.790;2023-03-20T04:17:38;99494.56;;;13.69;100.00
46129;BME280;31860;45.186;5.790;2023-03-20T04:20:05;99496.31;;;13.72;100.00
46129;BME280;31860;45.186;5.790;2023-03-20T04:22:30;99498.91;;;13.73;100.00
46129;BME280;31860;45.186;5.790;2023-03-20T04:25:02;99505.00;;;13.80;100.00
46129;BME280;31860;45.186;5.790;2023-03-20T04:27:28;99509.38;;;13.79;100.00
46129;BME280;31860;45.186;5.790;2023-03-20T04:29:54;99525.13;;;13.78;100.00
46129;BME280;31860;45.186;5.790;2023-03-20T04:32:20;99519.00;;;13.82;100.00
46129;BME280;31860;45.186;5.790;2023-03-20T04:34:45;99530.34;;;13.85;100.00
46129;BME280;31860;45.186;5.790;2023-03-20T04:37:11;99523.31;;;13.86;100.00
46129;BME280;31860;45.186;5.790;2023-03-20T04:39:36;99522.47;;;13.81;100.00
46129;BME280;31860;45.186;5.790;2023-03-20T04:42:05;99524.19;;;13.86;100.00
46129;BME280;31860;45.186;5.790;2023-03-20T04:44:31;99517.16;;;13.88;100.00
46129;BME280;31860;45.186;5.790;2023-03-20T04:46:57;99511.88;;;13.93;100.00
46129;BME280;31860;45.186;5.790;2023-03-20T04:49:22;99514.47;;;13.96;100.00
46129;BME280;31860;45.186;5.790;2023-03-20T04:51:48;99520.63;;;13.93;100.00
46129;BME280;31860;45.186;5.790;2023-03-20T04:54:13;99522.34;;;13.96;100.00
46129;BME280;31860;45.186;5.790;2023-03-20T04:56:39;99520.56;;;13.99;100.00
46129;BME280;31860;45.186;5.790;2023-03-20T04:59:04;99503.97;;;13.99;100.00
46129;BME280;31860;45.186;5.790;2023-03-20T05:01:30;99501.34;;;13.99;100.00
46129;BME280;31860;45.186;5.790;2023-03-20T05:03:55;99506.53;;;14.03;100.00
46129;BME280;31860;45.186;5.790;2023-03-20T05:06:26;99496.91;;;14.04;100.00
46129;BME280;31860;45.186;5.790;2023-03-20T05:08:51;99500.38;;;14.06;100.00
46129;BME280;31860;45.186;5.790;2023-03-20T05:11:17;99496.88;;;14.07;100.00
46129;BME280;31860;45.186;5.790;2023-03-20T05:13:42;99500.34;;;14.09;100.00
46129;BME280;31860;45.186;5.790;2023-03-20T05:16:07;99505.59;;;14.10;100.00
46129;BME280;31860;45.186;5.790;2023-03-20T05:18:33;99502.13;;;14.10;100.00
46129;BME280;31860;45.186;5.790;2023-03-20T05:20:59;99502.94;;;14.10;100.00
46129;BME280;31860;45.186;5.790;2023-03-20T05:23:25;99508.22;;;14.12;100.00
46129;BME280;31860;45.186;5.790;2023-03-20T05:25:51;99506.47;;;14.11;100.00
46129;BME280;31860;45.186;5.790;2023-03-20T05:28:16;99497.69;;;14.10;100.00
46129;BME280;31860;45.186;5.790;2023-03-20T05:30:42;99502.94;;;14.10;100.00
46129;BME280;31860;45.186;5.790;2023-03-20T05:33:07;99503.84;;;14.11;100.00
46129;BME280;31860;45.186;5.790;2023-03-20T05:35:33;99502.94;;;14.10;100.00
46129;BME280;31860;45.186;5.790;2023-03-20T05:37:58;99505.59;;;14.12;100.00
46129;BME280;31860;45.186;5.790;2023-03-20T05:40:25;99510.81;;;14.13;100.00
46129;BME280;31860;45.186;5.790;2023-03-20T05:42:50;99520.47;;;14.11;100.00
46129;BME280;31860;45.186;5.790;2023-03-20T05:45:17;99518.72;;;14.13;100.00
46129;BME280;31860;45.186;5.790;2023-03-20T05:47:42;99524.84;;;14.14;100.00
46129;BME280;31860;45.186;5.790;2023-03-20T05:50:09;99524.84;;;14.12;100.00
46129;BME280;31860;45.186;5.790;2023-03-20T05:52:35;99524.84;;;14.14;100.00
46129;BME280;31860;45.186;5.790;2023-03-20T05:55:01;99525.72;;;14.11;100.00
46129;BME280;31860;45.186;5.790;2023-03-20T05:57:26;99521.34;;;14.10;100.00
46129;BME280;31860;45.186;5.790;2023-03-20T05:59:52;99526.63;;;14.09;100.00
46129;BME280;31860;45.186;5.790;2023-03-20T06:02:17;99528.38;;;14.10;100.00
46129;BME280;31860;45.186;5.790;2023-03-20T06:04:43;99522.25;;;14.08;100.00
46129;BME280;31860;45.186;5.790;2023-03-20T06:07:08;99528.34;;;14.11;100.00
46129;BME280;31860;45.186;5.790;2023-03-20T06:09:34;99524.00;;;14.12;100.00
46129;BME280;31860;45.186;5.790;2023-03-20T06:12:00;99533.56;;;14.14;100.00
46129;BME280;31860;45.186;5.790;2023-03-20T06:14:25;99533.56;;;14.16;100.00
46129;BME280;31860;45.186;5.790;2023-03-20T06:16:51;99532.72;;;14.14;100.00
46129;BME280;31860;45.186;5.790;2023-03-20T06:19:18;99539.75;;;14.09;100.00
46129;BME280;31860;45.186;5.790;2023-03-20T06:21:44;99542.44;;;14.03;100.00
46129;BME280;31860;45.186;5.790;2023-03-20T06:24:10;99536.31;;;14.02;100.00
46129;BME280;31860;45.186;5.790;2023-03-20T06:26:36;99535.47;;;13.97;100.00
46129;BME280;31860;45.186;5.790;2023-03-20T06:29:01;99549.47;;;13.99;100.00
46129;BME280;31860;45.186;5.790;2023-03-20T06:31:27;99542.50;;;13.95;100.00
46129;BME280;31860;45.186;5.790;2023-03-20T06:33:52;99541.63;;;13.96;100.00
46129;BME280;31860;45.186;5.790;2023-03-20T06:36:18;99544.28;;;13.92;100.00
46129;BME280;31860;45.186;5.790;2023-03-20T06:38:43;99547.78;;;13.91;100.00
46129;BME280;31860;45.186;5.790;2023-03-20T06:41:09;99542.53;;;13.92;100.00
46129;BME280;31860;45.186;5.790;2023-03-20T06:43:35;99542.53;;;13.91;100.00
46129;BME280;31860;45.186;5.790;2023-03-20T06:46:01;99537.28;;;13.88;100.00
46129;BME280;31860;45.186;5.790;2023-03-20T06:48:27;99540.81;;;13.88;100.00
46129;BME280;31860;45.186;5.790;2023-03-20T06:50:52;99546.06;;;13.88;100.00
46129;BME280;31860;45.186;5.790;2023-03-20T06:53:18;99544.31;;;13.89;100.00
46129;BME280;31860;45.186;5.790;2023-03-20T06:55:49;99548.69;;;13.88;100.00
46129;BME280;31860;45.186;5.790;2023-03-20T06:58:15;99549.56;;;13.87;100.00
46129;BME280;31860;45.186;5.790;2023-03-20T07:00:41;99546.06;;;13.87;100.00
46129;BME280;31860;45.186;5.790;2023-03-20T07:03:06;99553.94;;;13.91;100.00
46129;BME280;31860;45.186;5.790;2023-03-20T07:05:33;99554.81;;;13.89;100.00
46129;BME280;31860;45.186;5.790;2023-03-20T07:07:58;99559.19;;;13.87;100.00
46129;BME280;31860;45.186;5.790;2023-03-20T07:10:24;99569.69;;;13.87;100.00
46129;BME280;31860;45.186;5.790;2023-03-20T07:12:49;99573.19;;;13.86;100.00
46129;BME280;31860;45.186;5.790;2023-03-20T07:15:16;99578.44;;;13.86;100.00
46129;BME280;31860;45.186;5.790;2023-03-20T07:17:41;99582.84;;;13.87;100.00
46129;BME280;31860;45.186;5.790;2023-03-20T07:20:08;99587.19;;;13.91;100.00
46129;BME280;31860;45.186;5.790;2023-03-20T07:22:34;99587.16;;;13.92;100.00
46129;BME280;31860;45.186;5.790;2023-03-20T07:25:00;99583.69;;;13.90;100.00
46129;BME280;31860;45.186;5.790;2023-03-20T07:27:25;99588.06;;;13.90;100.00
46129;BME280;31860;45.186;5.790;2023-03-20T07:29:51;99588.94;;;13.89;100.00
46129;BME280;31860;45.186;5.790;2023-03-20T07:32:17;99594.16;;;13.92;100.00
46129;BME280;31860;45.186;5.790;2023-03-20T07:34:42;99594.19;;;13.90;100.00
46129;BME280;31860;45.186;5.790;2023-03-20T07:37:08;99594.16;;;13.92;100.00
46129;BME280;31860;45.186;5.790;2023-03-20T07:39:34;99588.91;;;13.93;100.00
46129;BME280;31860;45.186;5.790;2023-03-20T07:42:00;99591.53;;;13.95;100.00
46129;BME280;31860;45.186;5.790;2023-03-20T07:44:25;99598.50;;;14.00;100.00
46129;BME280;31860;45.186;5.790;2023-03-20T07:46:51;99605.47;;;14.04;100.00
46129;BME280;31860;45.186;5.790;2023-03-20T07:49:17;99595.81;;;14.09;100.00
46129;BME280;31860;45.186;5.790;2023-03-20T07:51:46;99598.41;;;14.14;100.00
46129;BME280;31860;45.186;5.790;2023-03-20T07:54:12;99598.34;;;14.18;100.00
46129;BME280;31860;45.186;5.790;2023-03-20T07:56:39;99595.69;;;14.23;100.00
46129;BME280;31860;45.186;5.790;2023-03-20T07:59:04;99600.94;;;14.27;100.00
46129;BME280;31860;45.186;5.790;2023-03-20T08:01:30;99604.41;;;14.31;100.00
46129;BME280;31860;45.186;5.790;2023-03-20T08:03:55;99600.00;;;14.35;100.00
46129;BME280;31860;45.186;5.790;2023-03-20T08:06:21;99606.13;;;14.37;100.00
46129;BME280;31860;45.186;5.790;2023-03-20T08:08:46;99602.59;;;14.39;100.00
46129;BME280;31860;45.186;5.790;2023-03-20T08:11:13;99605.22;;;14.39;100.00
46129;BME280;31860;45.186;5.790;2023-03-20T08:13:39;99599.97;;;14.39;100.00
46129;BME280;31860;45.186;5.790;2023-03-20T08:16:05;99598.19;;;14.41;100.00
46129;BME280;31860;45.186;5.790;2023-03-20T08:18:31;99597.31;;;14.44;100.00
46129;BME280;31860;45.186;5.790;2023-03-20T08:20:56;99603.41;;;14.47;100.00
46129;BME280;31860;45.186;5.790;2023-03-20T08:23:21;99600.75;;;14.52;100.00
46129;BME280;31860;45.186;5.790;2023-03-20T08:25:51;99601.59;;;14.52;100.00
46129;BME280;31860;45.186;5.790;2023-03-20T08:28:17;99602.44;;;14.54;100.00
46129;BME280;31860;45.186;5.790;2023-03-20T08:30:42;99606.81;;;14.54;100.00
46129;BME280;31860;45.186;5.790;2023-03-20T08:33:08;99610.31;;;14.56;100.00
46129;BME280;31860;45.186;5.790;2023-03-20T08:35:34;99609.47;;;14.55;100.00
46129;BME280;31860;45.186;5.790;2023-03-20T08:38:00;99614.69;;;14.57;100.00
46129;BME280;31860;45.186;5.790;2023-03-20T08:40:26;99614.69;;;14.57;100.00
46129;BME280;31860;45.186;5.790;2023-03-20T08:42:51;99613.81;;;14.56;100.00
46129;BME280;31860;45.186;5.790;2023-03-20T08:45:17;99614.69;;;14.57;100.00
46129;BME280;31860;45.186;5.790;2023-03-20T08:47:46;99612.09;;;14.55;100.00
46129;BME280;31860;45.186;5.790;2023-03-20T08:50:12;99621.72;;;14.56;100.00
46129;BME280;31860;45.186;5.790;2023-03-20T08:52:38;99625.25;;;14.55;100.00
46129;BME280;31860;45.186;5.790;2023-03-20T08:55:09;99624.34;;;14.56;100.00
46129;BME280;31860;45.186;5.790;2023-03-20T08:57:35;99626.09;;;14.54;100.00
46129;BME280;31860;45.186;5.790;2023-03-20T09:00:03;99626.97;;;14.56;100.00
46129;BME280;31860;45.186;5.790;2023-03-20T09:02:29;99627.84;;;14.57;100.00
46129;BME280;31860;45.186;5.790;2023-03-20T09:04:54;99626.94;;;14.58;100.00
46129;BME280;31860;45.186;5.790;2023-03-20T09:07:20;99633.94;;;14.60;100.00
46129;BME280;31860;45.186;5.790;2023-03-20T09:09:46;99626.06;;;14.60;100.00
46129;BME280;31860;45.186;5.790;2023-03-20T09:12:11;99623.38;;;14.63;100.00
46129;BME280;31860;45.186;5.790;2023-03-20T09:14:37;99620.75;;;14.65;100.00
46129;BME280;31860;45.186;5.790;2023-03-20T09:17:03;99625.13;;;14.66;100.00
46129;BME280;31860;45.186;5.790;2023-03-20T09:19:28;99622.44;;;14.69;100.00
46129;BME280;31860;45.186;5.790;2023-03-20T09:21:53;99632.97;;;14.72;100.00
46129;BME280;31860;45.186;5.790;2023-03-20T09:24:19;99632.91;;;14.75;100.00
46129;BME280;31860;45.186;5.790;2023-03-20T09:26:45;99627.63;;;14.76;100.00
46129;BME280;31860;45.186;5.790;2023-03-20T09:29:11;99624.13;;;14.77;100.00
46129;BME280;31860;45.186;5.790;2023-03-20T09:31:36;99625.00;;;14.79;100.00
46129;BME280;31860;45.186;5.790;2023-03-20T09:34:02;99628.50;;;14.81;100.00
46129;BME280;31860;45.186;5.790;2023-03-20T09:36:31;99631.97;;;14.83;100.00
46129;BME280;31860;45.186;5.790;2023-03-20T09:38:57;99632.84;;;14.85;100.00
46129;BME280;31860;45.186;5.790;2023-03-20T09:41:24;99651.19;;;14.88;100.00
46129;BME280;31860;45.186;5.790;2023-03-20T09:44:34;99649.41;;;14.92;100.00
46129;BME280;31860;45.186;5.790;2023-03-20T09:47:12;99644.13;;;14.95;100.00
46129;BME280;31860;45.186;5.790;2023-03-20T09:53:02;99662.47;;;15.01;100.00
46129;BME280;31860;45.186;5.790;2023-03-20T09:55:36;99658.97;;;15.02;100.00
46129;BME280;31860;45.186;5.790;2023-03-20T09:58:14;99666.81;;;15.03;100.00
46129;BME280;31860;45.186;5.790;2023-03-20T10:00:44;99665.09;;;15.04;100.00
46129;BME280;31860;45.186;5.790;2023-03-20T10:06:08;99665.09;;;15.04;100.00
46129;BME280;31860;45.186;5.790;2023-03-20T10:08:37;99662.44;;;15.05;100.00
46129;BME280;31860;45.186;5.790;2023-03-20T10:17:06;99662.44;;;15.05;100.00
46129;BME280;31860;45.186;5.790;2023-03-20T10:22:23;99671.19;;;15.07;98.11
46129;BME280;31860;45.186;5.790;2023-03-20T10:27:42;99665.00;;;15.08;95.09
46129;BME280;31860;45.186;5.790;2023-03-20T10:39:48;99663.25;;;15.09;90.86
46129;BME280;31860;45.186;5.790;2023-03-20T10:42:24;99656.25;;;15.09;89.92
46129;BME280;31860;45.186;5.790;2023-03-20T10:45:03;99662.38;;;15.10;87.69
46129;BME280;31860;45.186;5.790;2023-03-20T10:47:34;99657.97;;;15.10;88.02
46129;BME280;31860;45.186;5.790;2023-03-20T10:50:04;99665.84;;;15.13;88.71
46129;BME280;31860;45.186;5.790;2023-03-20T10:52:34;99666.69;;;15.14;89.40
46129;BME280;31860;45.186;5.790;2023-03-20T10:55:06;99660.53;;;15.16;88.10
46129;BME280;31860;45.186;5.790;2023-03-20T10:57:37;99657.03;;;15.16;87.67
46129;BME280;31860;45.186;5.790;2023-03-20T11:00:06;99658.78;;;15.17;87.37
46129;BME280;31860;45.186;5.790;2023-03-20T11:02:37;99665.78;;;15.19;87.70
46129;BME280;31860;45.186;5.790;2023-03-20T11:07:49;99672.75;;;15.22;85.00
46129;BME280;31860;45.186;5.790;2023-03-20T11:10:16;99667.50;;;15.22;84.10
46129;BME280;31860;45.186;5.790;2023-03-20T11:12:46;99671.91;;;15.23;83.13
46129;BME280;31860;45.186;5.790;2023-03-20T11:15:32;99665.72;;;15.24;81.81
46129;BME280;31860;45.186;5.790;2023-03-20T11:18:00;99669.25;;;15.25;81.46
46129;BME280;31860;45.186;5.790;2023-03-20T11:20:37;99669.22;;;15.26;78.89
46129;BME280;31860;45.186;5.790;2023-03-20T11:23:05;99666.56;;;15.28;79.02
46129;BME280;31860;45.186;5.790;2023-03-20T11:25:37;99668.28;;;15.30;78.52
46129;BME280;31860;45.186;5.790;2023-03-20T11:30:45;99666.50;;;15.34;78.97
46129;BME280;31860;45.186;5.790;2023-03-20T11:33:13;99662.09;;;15.36;79.99
46129;BME280;31860;45.186;5.790;2023-03-20T11:35:44;99665.59;;;15.36;80.76
46129;BME280;31860;45.186;5.790;2023-03-20T11:38:16;99661.19;;;15.38;80.56
46129;BME280;31860;45.186;5.790;2023-03-20T11:40:44;99659.41;;;15.39;79.28
46129;BME280;31860;45.186;5.790;2023-03-20T11:43:20;99660.25;;;15.41;77.09
46129;BME280;31860;45.186;5.790;2023-03-20T11:45:54;99661.16;;;15.41;76.12
46129;BME280;31860;45.186;5.790;2023-03-20T11:48:22;99654.13;;;15.43;77.08
46129;BME280;31860;45.186;5.790;2023-03-20T11:51:02;99658.50;;;15.46;77.33
46129;BME280;31860;45.186;5.790;2023-03-20T11:56:13;99659.31;;;15.51;76.42
46129;BME280;31860;45.186;5.790;2023-03-20T12:01:42;99655.78;;;15.53;77.01
46129;BME280;31860;45.186;5.790;2023-03-20T12:06:51;99653.91;;;15.60;75.21
46129;BME280;31860;45.186;5.790;2023-03-20T12:09:26;99640.69;;;15.64;74.38
46129;BME280;31860;45.186;5.790;2023-03-20T12:14:52;99644.13;;;15.72;74.13
46129;BME280;31860;45.186;5.790;2023-03-20T12:20:03;99640.44;;;15.82;74.44
46129;BME280;31860;45.186;5.790;2023-03-20T12:22:34;99626.31;;;15.88;74.64
46129;BME280;31860;45.186;5.790;2023-03-20T12:25:15;99639.44;;;15.92;73.06
46129;BME280;31860;45.186;5.790;2023-03-20T12:27:46;99634.09;;;15.97;73.79
46129;BME280;31860;45.186;5.790;2023-03-20T12:33:17;99624.28;;;16.05;70.86
46129;BME280;31860;45.186;5.790;2023-03-20T12:35:46;99626.00;;;16.09;71.80
46129;BME280;31860;45.186;5.790;2023-03-20T12:38:31;99621.50;;;16.14;69.52
46129;BME280;31860;45.186;5.790;2023-03-20T12:41:10;99617.94;;;16.18;68.96
46129;BME280;31860;45.186;5.790;2023-03-20T12:44:03;99613.50;;;16.22;67.61
46129;BME280;31860;45.186;5.790;2023-03-20T12:46:47;99611.69;;;16.24;67.22
46129;BME280;31860;45.186;5.790;2023-03-20T12:49:42;99605.56;;;16.25;67.76
46129;BME280;31860;45.186;5.790;2023-03-20T12:52:29;99596.66;;;16.30;67.57
46129;BME280;31860;45.186;5.790;2023-03-20T12:58:20;99591.38;;;16.32;65.79
46129;BME280;31860;45.186;5.790;2023-03-20T13:01:21;99583.41;;;16.33;65.12
46129;BME280;31860;45.186;5.790;2023-03-20T13:04:18;99579.03;;;16.34;66.47
46129;BME280;31860;45.186;5.790;2023-03-20T13:06:54;99572.84;;;16.36;67.17
46129;BME280;31860;45.186;5.790;2023-03-20T13:32:36;99522.88;;;16.77;64.18
46129;BME280;31860;45.186;5.790;2023-03-20T13:37:38;99507.84;;;16.81;62.83
46129;BME280;31860;45.186;5.790;2023-03-20T13:40:24;99508.72;;;16.81;62.61
46129;BME280;31860;45.186;5.790;2023-03-20T13:45:38;99485.03;;;16.78;61.80
46129;BME280;31860;45.186;5.790;2023-03-20T13:48:31;99488.53;;;16.79;62.66
46129;BME280;31860;45.186;5.790;2023-03-20T13:56:52;99477.97;;;16.79;64.21
46129;BME280;31860;45.186;5.790;2023-03-20T13:59:45;99471.91;;;16.75;62.68
46129;BME280;31860;45.186;5.790;2023-03-20T14:05:18;99472.81;;;16.73;62.29
46129;BME280;31860;45.186;5.790;2023-03-20T14:07:47;99466.66;;;16.74;62.91
46129;BME280;31860;45.186;5.790;2023-03-20T14:12:58;99467.47;;;16.77;62.30
46129;BME280;31860;45.186;5.790;2023-03-20T14:15:32;99464.75;;;16.80;63.15
46129;BME280;31860;45.186;5.790;2023-03-20T14:18:04;99460.34;;;16.81;63.33
46129;BME280;31860;45.186;5.790;2023-03-20T14:20:36;99466.47;;;16.83;63.50
46129;BME280;31860;45.186;5.790;2023-03-20T14:23:04;99460.28;;;16.85;63.79
46129;BME280;31860;45.186;5.790;2023-03-20T14:25:40;99460.19;;;16.88;63.47
46129;BME280;31860;45.186;5.790;2023-03-20T14:33:23;99460.13;;;16.91;61.39
46129;BME280;31860;45.186;5.790;2023-03-20T14:38:54;99449.59;;;16.90;61.76
46129;BME280;31860;45.186;5.790;2023-03-20T14:41:34;99451.41;;;16.88;60.30
46129;BME280;31860;45.186;5.790;2023-03-20T14:46:53;99442.63;;;16.87;60.28
46129;BME280;31860;45.186;5.790;2023-03-20T14:55:28;99432.09;;;16.86;60.14
46129;BME280;31860;45.186;5.790;2023-03-20T14:57:55;99435.66;;;16.85;60.90
46129;BME280;31860;45.186;5.790;2023-03-20T15:03:03;99424.22;;;16.84;59.56
46129;BME280;31860;45.186;5.790;2023-03-20T15:05:33;99419.81;;;16.85;60.17
46129;BME280;31860;45.186;5.790;2023-03-20T15:08:08;99421.56;;;16.84;60.48
46129;BME280;31860;45.186;5.790;2023-03-20T15:10:35;99425.06;;;16.86;60.97
46129;BME280;31860;45.186;5.790;2023-03-20T15:13:06;99415.38;;;16.87;60.78
46129;BME280;31860;45.186;5.790;2023-03-20T15:15:32;99412.72;;;16.87;60.42
46129;BME280;31860;45.186;5.790;2023-03-20T15:18:12;99413.59;;;16.87;60.06
46129;BME280;31860;45.186;5.790;2023-03-20T15:20:38;99408.34;;;16.87;60.85
46129;BME280;31860;45.186;5.790;2023-03-20T15:23:04;99421.53;;;16.86;60.44